sensor_id;sensor_type;location;lat;lon;timestamp;temperature;humidity
21387;DHT22;10854;45.922;6.716;2023-06-05T00:00:35;12.00;99.90
21387;DHT22;10854;45.922;6.716;2023-06-05T00:03:03;11.90;99.90
21387;DHT22;10854;45.922;6.716;2023-06-05T00:05:32;11.90;99.90
21387;DHT22;10854;45.922;6.716;2023-06-05T00:08:00;11.90;99.90
21387;DHT22;10854;45.922;6.716;2023-06-05T00:10:29;11.90;99.90
21387;DHT22;10854;45.922;6.716;2023-06-05T00:12:58;11.80;99.90
21387;DHT22;10854;45.922;6.716;2023-06-05T00:15:26;11.80;99.90
21387;DHT22;10854;45.922;6.716;2023-06-05T00:17:54;11.70;99.90
21387;DHT22;10854;45.922;6.716;2023-06-05T00:20:24;11.70;99.90
21387;DHT22;10854;45.922;6.716;2023-06-05T00:22:52;11.60;99.90
21387;DHT22;10854;45.922;6.716;2023-06-05T00:25:23;11.60;99.90
21387;DHT22;10854;45.922;6.716;2023-06-05T00:27:52;11.60;99.90
21387;DHT22;10854;45.922;6.716;2023-06-05T00:30:20;11.60;99.90
21387;DHT22;10854;45.922;6.716;2023-06-05T00:32:48;11.50;99.90
21387;DHT22;10854;45.922;6.716;2023-06-05T00:35:17;11.50;99.90
21387;DHT22;10854;45.922;6.716;2023-06-05T00:37:45;11.50;99.90
21387;DHT22;10854;45.922;6.716;2023-06-05T00:40:14;11.40;99.90
21387;DHT22;10854;45.922;6.716;2023-06-05T00:42:42;11.40;99.90
21387;DHT22;10854;45.922;6.716;2023-06-05T00:45:11;11.40;99.90
21387;DHT22;10854;45.922;6.716;2023-06-05T00:47:39;11.40;99.90
21387;DHT22;10854;45.922;6.716;2023-06-05T00:50:08;11.40;99.90
21387;DHT22;10854;45.922;6.716;2023-06-05T00:52:40;11.50;99.90
21387;DHT22;10854;45.922;6.716;2023-06-05T00:55:11;11.50;99.90
21387;DHT22;10854;45.922;6.716;2023-06-05T00:57:40;11.40;99.90
21387;DHT22;10854;45.922;6.716;2023-06-05T01:00:09;11.40;99.90
21387;DHT22;10854;45.922;6.716;2023-06-05T01:02:40;11.30;99.90
21387;DHT22;10854;45.922;6.716;2023-06-05T01:05:09;11.30;99.90
21387;DHT22;10854;45.922;6.716;2023-06-05T01:07:38;11.30;99.90
21387;DHT22;10854;45.922;6.716;2023-06-05T01:10:08;11.20;99.90
21387;DHT22;10854;45.922;6.716;2023-06-05T01:15:44;11.20;99.90
21387;DHT22;10854;45.922;6.716;2023-06-05T01:18:13;11.10;99.90
21387;DHT22;10854;45.922;6.716;2023-06-05T01:20:41;11.10;99.90
21387;DHT22;10854;45.922;6.716;2023-06-05T01:23:10;11.10;99.90
21387;DHT22;10854;45.922;6.716;2023-06-05T01:25:39;11.10;99.90
21387;DHT22;10854;45.922;6.716;2023-06-05T01:28:16;11.10;99.90
21387;DHT22;10854;45.922;6.716;2023-06-05T01:30:48;11.10;99.90
21387;DHT22;10854;45.922;6.716;2023-06-05T01:33:26;11.10;99.90
21387;DHT22;10854;45.922;6.716;2023-06-05T01:35:58;11.10;99.90
21387;DHT22;10854;45.922;6.716;2023-06-05T01:38:33;11.00;99.90
21387;DHT22;10854;45.922;6.716;2023-06-05T01:41:04;11.10;99.90
21387;DHT22;10854;45.922;6.716;2023-06-05T01:43:34;11.10;99.90
21387;DHT22;10854;45.922;6.716;2023-06-05T01:46:04;11.00;99.90
21387;DHT22;10854;45.922;6.716;2023-06-05T01:48:35;11.00;99.90
21387;DHT22;10854;45.922;6.716;2023-06-05T01:51:03;10.90;99.90
21387;DHT22;10854;45.922;6.716;2023-06-05T01:53:32;10.90;99.90
21387;DHT22;10854;45.922;6.716;2023-06-05T01:56:01;10.80;99.90
21387;DHT22;10854;45.922;6.716;2023-06-05T01:58:30;10.80;99.90
21387;DHT22;10854;45.922;6.716;2023-06-05T02:00:58;10.80;99.90
21387;DHT22;10854;45.922;6.716;2023-06-05T02:03:27;10.80;99.90
21387;DHT22;10854;45.922;6.716;2023-06-05T02:05:56;10.80;99.90
21387;DHT22;10854;45.922;6.716;2023-06-05T02:08:24;10.80;99.90
21387;DHT22;10854;45.922;6.716;2023-06-05T02:10:53;10.80;99.90
21387;DHT22;10854;45.922;6.716;2023-06-05T02:13:22;10.80;99.90
21387;DHT22;10854;45.922;6.716;2023-06-05T02:15:53;10.70;99.90
21387;DHT22;10854;45.922;6.716;2023-06-05T02:18:24;10.70;99.90
21387;DHT22;10854;45.922;6.716;2023-06-05T02:20:54;10.60;99.90
21387;DHT22;10854;45.922;6.716;2023-06-05T02:23:25;10.60;99.90
21387;DHT22;10854;45.922;6.716;2023-06-05T02:25:54;10.50;99.90
21387;DHT22;10854;45.922;6.716;2023-06-05T02:28:23;10.60;99.90
21387;DHT22;10854;45.922;6.716;2023-06-05T02:30:51;10.60;99.90
21387;DHT22;10854;45.922;6.716;2023-06-05T02:33:21;10.60;99.90
21387;DHT22;10854;45.922;6.716;2023-06-05T02:35:51;10.50;99.90
21387;DHT22;10854;45.922;6.716;2023-06-05T02:38:20;10.50;99.90
21387;DHT22;10854;45.922;6.716;2023-06-05T02:40:48;10.40;99.90
21387;DHT22;10854;45.922;6.716;2023-06-05T02:43:16;10.40;99.90
21387;DHT22;10854;45.922;6.716;2023-06-05T02:45:45;10.40;99.90
21387;DHT22;10854;45.922;6.716;2023-06-05T02:48:13;10.40;99.90
21387;DHT22;10854;45.922;6.716;2023-06-05T02:50:42;10.40;99.90
21387;DHT22;10854;45.922;6.716;2023-06-05T02:53:10;10.30;99.90
21387;DHT22;10854;45.922;6.716;2023-06-05T02:55:39;10.30;99.90
21387;DHT22;10854;45.922;6.716;2023-06-05T02:58:08;10.30;99.90
21387;DHT22;10854;45.922;6.716;2023-06-05T03:00:37;10.20;99.90
21387;DHT22;10854;45.922;6.716;2023-06-05T03:03:05;10.20;99.90
21387;DHT22;10854;45.922;6.716;2023-06-05T03:05:35;10.20;99.90
21387;DHT22;10854;45.922;6.716;2023-06-05T03:08:03;10.20;99.90
21387;DHT22;10854;45.922;6.716;2023-06-05T03:10:34;10.20;99.90
21387;DHT22;10854;45.922;6.716;2023-06-05T03:13:03;10.20;99.90
21387;DHT22;10854;45.922;6.716;2023-06-05T03:15:32;10.20;99.90
21387;DHT22;10854;45.922;6.716;2023-06-05T03:18:00;10.30;99.90
21387;DHT22;10854;45.922;6.716;2023-06-05T03:20:31;10.30;99.90
21387;DHT22;10854;45.922;6.716;2023-06-05T03:23:00;10.20;99.90
21387;DHT22;10854;45.922;6.716;2023-06-05T03:25:28;10.20;99.90
21387;DHT22;10854;45.922;6.716;2023-06-05T03:27:57;10.10;99.90
21387;DHT22;10854;45.922;6.716;2023-06-05T03:30:26;10.10;99.90
21387;DHT22;10854;45.922;6.716;2023-06-05T03:32:54;10.00;99.90
21387;DHT22;10854;45.922;6.716;2023-06-05T03:35:22;10.10;99.90
21387;DHT22;10854;45.922;6.716;2023-06-05T03:37:51;10.00;99.90
21387;DHT22;10854;45.922;6.716;2023-06-05T03:40:19;10.00;99.90
21387;DHT22;10854;45.922;6.716;2023-06-05T03:42:48;9.90;99.90
21387;DHT22;10854;45.922;6.716;2023-06-05T03:45:16;9.90;99.90
21387;DHT22;10854;45.922;6.716;2023-06-05T03:47:46;9.90;99.90
21387;DHT22;10854;45.922;6.716;2023-06-05T03:50:16;9.90;99.90
21387;DHT22;10854;45.922;6.716;2023-06-05T03:52:45;9.90;99.90
21387;DHT22;10854;45.922;6.716;2023-06-05T03:55:20;9.90;99.90
21387;DHT22;10854;45.922;6.716;2023-06-05T03:57:48;9.90;99.90
21387;DHT22;10854;45.922;6.716;2023-06-05T04:00:17;9.90;99.90
21387;DHT22;10854;45.922;6.716;2023-06-05T04:02:46;9.90;99.90
21387;DHT22;10854;45.922;6.716;2023-06-05T04:05:14;9.90;99.90
21387;DHT22;10854;45.922;6.716;2023-06-05T04:07:43;9.90;99.90
21387;DHT22;10854;45.922;6.716;2023-06-05T04:10:11;9.90;99.90
21387;DHT22;10854;45.922;6.716;2023-06-05T04:12:40;9.90;99.90
21387;DHT22;10854;45.922;6.716;2023-06-05T04:15:08;10.00;99.90
21387;DHT22;10854;45.922;6.716;2023-06-05T04:17:37;10.00;99.90
21387;DHT22;10854;45.922;6.716;2023-06-05T04:20:06;10.00;99.90
21387;DHT22;10854;45.922;6.716;2023-06-05T04:22:42;10.10;99.90
21387;DHT22;10854;45.922;6.716;2023-06-05T04:25:11;10.10;99.90
21387;DHT22;10854;45.922;6.716;2023-06-05T04:27:41;10.10;99.90
21387;DHT22;10854;45.922;6.716;2023-06-05T04:30:12;10.10;99.90
21387;DHT22;10854;45.922;6.716;2023-06-05T04:32:42;10.10;99.90
21387;DHT22;10854;45.922;6.716;2023-06-05T04:35:21;10.20;99.90
21387;DHT22;10854;45.922;6.716;2023-06-05T04:37:50;10.10;99.90
21387;DHT22;10854;45.922;6.716;2023-06-05T04:40:20;10.10;99.90
21387;DHT22;10854;45.922;6.716;2023-06-05T04:42:48;10.10;99.90
21387;DHT22;10854;45.922;6.716;2023-06-05T04:45:17;10.20;99.90
21387;DHT22;10854;45.922;6.716;2023-06-05T04:47:45;10.20;99.90
21387;DHT22;10854;45.922;6.716;2023-06-05T04:50:27;10.20;99.90
21387;DHT22;10854;45.922;6.716;2023-06-05T04:52:56;10.30;99.90
21387;DHT22;10854;45.922;6.716;2023-06-05T04:55:25;10.30;99.90
21387;DHT22;10854;45.922;6.716;2023-06-05T04:57:53;10.40;99.90
21387;DHT22;10854;45.922;6.716;2023-06-05T05:00:22;10.50;99.90
21387;DHT22;10854;45.922;6.716;2023-06-05T05:02:50;10.50;99.90
21387;DHT22;10854;45.922;6.716;2023-06-05T05:05:20;10.60;99.90
21387;DHT22;10854;45.922;6.716;2023-06-05T05:07:48;10.60;99.90
21387;DHT22;10854;45.922;6.716;2023-06-05T05:10:18;10.70;99.90
21387;DHT22;10854;45.922;6.716;2023-06-05T05:12:47;10.90;99.90
21387;DHT22;10854;45.922;6.716;2023-06-05T05:15:15;11.20;99.90
21387;DHT22;10854;45.922;6.716;2023-06-05T05:17:44;11.70;99.90
21387;DHT22;10854;45.922;6.716;2023-06-05T05:20:12;12.20;99.90
21387;DHT22;10854;45.922;6.716;2023-06-05T05:22:41;12.60;99.90
21387;DHT22;10854;45.922;6.716;2023-06-05T05:25:10;13.10;99.90
21387;DHT22;10854;45.922;6.716;2023-06-05T05:27:39;13.60;99.90
21387;DHT22;10854;45.922;6.716;2023-06-05T05:30:08;14.00;99.90
21387;DHT22;10854;45.922;6.716;2023-06-05T05:32:37;14.20;99.90
21387;DHT22;10854;45.922;6.716;2023-06-05T05:35:05;14.40;99.90
21387;DHT22;10854;45.922;6.716;2023-06-05T05:37:35;14.60;99.90
21387;DHT22;10854;45.922;6.716;2023-06-05T05:40:04;15.00;99.90
21387;DHT22;10854;45.922;6.716;2023-06-05T05:42:33;15.40;99.90
21387;DHT22;10854;45.922;6.716;2023-06-05T05:45:01;15.70;99.90
21387;DHT22;10854;45.922;6.716;2023-06-05T05:47:30;15.90;99.90
21387;DHT22;10854;45.922;6.716;2023-06-05T05:49:59;16.00;99.90
21387;DHT22;10854;45.922;6.716;2023-06-05T05:52:27;16.20;99.90
21387;DHT22;10854;45.922;6.716;2023-06-05T05:54:56;16.30;99.90
21387;DHT22;10854;45.922;6.716;2023-06-05T05:57:26;16.40;99.90
21387;DHT22;10854;45.922;6.716;2023-06-05T05:59:55;16.50;99.90
21387;DHT22;10854;45.922;6.716;2023-06-05T06:02:24;16.70;99.90
21387;DHT22;10854;45.922;6.716;2023-06-05T06:04:53;16.80;99.90
21387;DHT22;10854;45.922;6.716;2023-06-05T06:07:21;16.90;99.90
21387;DHT22;10854;45.922;6.716;2023-06-05T06:09:50;17.00;99.90
21387;DHT22;10854;45.922;6.716;2023-06-05T06:12:18;17.00;99.90
21387;DHT22;10854;45.922;6.716;2023-06-05T06:14:47;17.10;99.90
21387;DHT22;10854;45.922;6.716;2023-06-05T06:17:16;17.10;99.90
21387;DHT22;10854;45.922;6.716;2023-06-05T06:19:45;17.10;99.90
21387;DHT22;10854;45.922;6.716;2023-06-05T06:22:15;17.20;99.90
21387;DHT22;10854;45.922;6.716;2023-06-05T06:24:44;17.40;99.90
21387;DHT22;10854;45.922;6.716;2023-06-05T06:27:13;17.70;99.90
21387;DHT22;10854;45.922;6.716;2023-06-05T06:29:50;18.00;99.90
21387;DHT22;10854;45.922;6.716;2023-06-05T06:32:23;18.10;99.90
21387;DHT22;10854;45.922;6.716;2023-06-05T06:34:54;18.30;99.90
21387;DHT22;10854;45.922;6.716;2023-06-05T06:37:23;18.40;99.70
21387;DHT22;10854;45.922;6.716;2023-06-05T06:39:52;18.50;97.80
21387;DHT22;10854;45.922;6.716;2023-06-05T06:42:21;18.70;96.20
21387;DHT22;10854;45.922;6.716;2023-06-05T06:44:49;18.80;95.40
21387;DHT22;10854;45.922;6.716;2023-06-05T06:47:24;18.90;94.00
21387;DHT22;10854;45.922;6.716;2023-06-05T06:49:53;18.90;92.30
21387;DHT22;10854;45.922;6.716;2023-06-05T06:52:23;19.00;91.00
21387;DHT22;10854;45.922;6.716;2023-06-05T06:54:52;19.10;90.20
21387;DHT22;10854;45.922;6.716;2023-06-05T06:57:23;19.20;90.00
21387;DHT22;10854;45.922;6.716;2023-06-05T06:59:51;19.30;88.70
21387;DHT22;10854;45.922;6.716;2023-06-05T07:02:24;19.40;88.30
21387;DHT22;10854;45.922;6.716;2023-06-05T07:04:53;19.60;88.10
21387;DHT22;10854;45.922;6.716;2023-06-05T07:07:22;20.00;87.90
21387;DHT22;10854;45.922;6.716;2023-06-05T07:09:52;20.20;86.30
21387;DHT22;10854;45.922;6.716;2023-06-05T07:12:20;20.40;85.20
21387;DHT22;10854;45.922;6.716;2023-06-05T07:14:50;20.50;84.60
21387;DHT22;10854;45.922;6.716;2023-06-05T07:17:19;20.50;84.10
21387;DHT22;10854;45.922;6.716;2023-06-05T07:19:48;20.60;82.60
21387;DHT22;10854;45.922;6.716;2023-06-05T07:22:16;20.80;83.00
21387;DHT22;10854;45.922;6.716;2023-06-05T07:24:45;21.20;81.50
21387;DHT22;10854;45.922;6.716;2023-06-05T07:27:13;21.50;81.10
21387;DHT22;10854;45.922;6.716;2023-06-05T07:29:41;21.90;79.40
21387;DHT22;10854;45.922;6.716;2023-06-05T07:32:12;22.20;78.20
21387;DHT22;10854;45.922;6.716;2023-06-05T07:34:43;22.30;76.20
21387;DHT22;10854;45.922;6.716;2023-06-05T07:37:12;22.30;75.10
21387;DHT22;10854;45.922;6.716;2023-06-05T07:39:40;22.30;74.60
21387;DHT22;10854;45.922;6.716;2023-06-05T07:42:09;22.40;73.60
21387;DHT22;10854;45.922;6.716;2023-06-05T07:44:37;22.40;73.20
21387;DHT22;10854;45.922;6.716;2023-06-05T07:47:06;22.50;72.90
21387;DHT22;10854;45.922;6.716;2023-06-05T07:49:34;22.60;73.30
21387;DHT22;10854;45.922;6.716;2023-06-05T07:52:03;22.70;71.60
21387;DHT22;10854;45.922;6.716;2023-06-05T07:54:31;22.80;71.30
21387;DHT22;10854;45.922;6.716;2023-06-05T07:57:00;22.90;71.10
21387;DHT22;10854;45.922;6.716;2023-06-05T07:59:28;22.90;70.10
21387;DHT22;10854;45.922;6.716;2023-06-05T08:01:57;22.90;70.10
21387;DHT22;10854;45.922;6.716;2023-06-05T08:04:28;23.00;70.30
21387;DHT22;10854;45.922;6.716;2023-06-05T08:06:58;23.10;69.40
21387;DHT22;10854;45.922;6.716;2023-06-05T08:09:26;23.00;68.30
21387;DHT22;10854;45.922;6.716;2023-06-05T08:11:55;23.10;68.30
21387;DHT22;10854;45.922;6.716;2023-06-05T08:14:23;23.30;67.10
21387;DHT22;10854;45.922;6.716;2023-06-05T08:16:52;23.40;66.70
21387;DHT22;10854;45.922;6.716;2023-06-05T08:19:21;23.60;65.90
21387;DHT22;10854;45.922;6.716;2023-06-05T08:21:51;23.70;66.00
21387;DHT22;10854;45.922;6.716;2023-06-05T08:24:26;23.80;65.50
21387;DHT22;10854;45.922;6.716;2023-06-05T08:26:56;24.00;64.40
21387;DHT22;10854;45.922;6.716;2023-06-05T08:29:28;24.10;63.80
21387;DHT22;10854;45.922;6.716;2023-06-05T08:31:57;24.30;62.90
21387;DHT22;10854;45.922;6.716;2023-06-05T08:34:35;24.60;63.40
21387;DHT22;10854;45.922;6.716;2023-06-05T08:37:04;24.70;62.80
21387;DHT22;10854;45.922;6.716;2023-06-05T08:39:33;24.80;63.00
21387;DHT22;10854;45.922;6.716;2023-06-05T08:42:04;24.90;62.20
21387;DHT22;10854;45.922;6.716;2023-06-05T08:44:36;25.00;62.00
21387;DHT22;10854;45.922;6.716;2023-06-05T08:47:08;25.00;62.00
21387;DHT22;10854;45.922;6.716;2023-06-05T08:49:41;25.00;61.20
21387;DHT22;10854;45.922;6.716;2023-06-05T08:52:13;25.00;60.50
21387;DHT22;10854;45.922;6.716;2023-06-05T08:54:42;25.00;60.00
21387;DHT22;10854;45.922;6.716;2023-06-05T08:57:12;25.00;60.00
21387;DHT22;10854;45.922;6.716;2023-06-05T08:59:41;25.00;59.50
21387;DHT22;10854;45.922;6.716;2023-06-05T09:02:11;25.10;59.40
21387;DHT22;10854;45.922;6.716;2023-06-05T09:04:40;25.20;59.20
21387;DHT22;10854;45.922;6.716;2023-06-05T09:07:12;25.30;58.80
21387;DHT22;10854;45.922;6.716;2023-06-05T09:09:42;25.50;59.00
21387;DHT22;10854;45.922;6.716;2023-06-05T09:12:10;25.70;58.60
21387;DHT22;10854;45.922;6.716;2023-06-05T09:14:40;26.10;58.90
21387;DHT22;10854;45.922;6.716;2023-06-05T09:17:13;26.60;58.40
21387;DHT22;10854;45.922;6.716;2023-06-05T09:19:42;26.90;55.80
21387;DHT22;10854;45.922;6.716;2023-06-05T09:22:16;26.90;55.70
21387;DHT22;10854;45.922;6.716;2023-06-05T09:25:00;27.30;56.00
21387;DHT22;10854;45.922;6.716;2023-06-05T09:27:31;27.50;55.40
21387;DHT22;10854;45.922;6.716;2023-06-05T09:30:04;27.50;55.50
21387;DHT22;10854;45.922;6.716;2023-06-05T09:32:33;27.70;55.80
21387;DHT22;10854;45.922;6.716;2023-06-05T09:35:02;28.10;55.00
21387;DHT22;10854;45.922;6.716;2023-06-05T09:37:35;28.40;54.70
21387;DHT22;10854;45.922;6.716;2023-06-05T09:40:04;28.50;54.20
21387;DHT22;10854;45.922;6.716;2023-06-05T09:42:36;28.70;54.00
21387;DHT22;10854;45.922;6.716;2023-06-05T09:45:05;28.90;53.30
21387;DHT22;10854;45.922;6.716;2023-06-05T09:47:33;29.20;53.10
21387;DHT22;10854;45.922;6.716;2023-06-05T09:50:21;29.40;52.80
21387;DHT22;10854;45.922;6.716;2023-06-05T09:52:51;29.80;51.80
21387;DHT22;10854;45.922;6.716;2023-06-05T09:55:21;29.70;51.40
21387;DHT22;10854;45.922;6.716;2023-06-05T09:57:51;29.60;50.00
21387;DHT22;10854;45.922;6.716;2023-06-05T10:00:20;29.40;50.00
21387;DHT22;10854;45.922;6.716;2023-06-05T10:02:49;29.40;50.20
21387;DHT22;10854;45.922;6.716;2023-06-05T10:05:19;29.30;50.50
21387;DHT22;10854;45.922;6.716;2023-06-05T10:07:49;29.30;50.70
21387;DHT22;10854;45.922;6.716;2023-06-05T10:10:22;29.30;50.70
21387;DHT22;10854;45.922;6.716;2023-06-05T10:12:51;29.40;50.40
21387;DHT22;10854;45.922;6.716;2023-06-05T10:15:24;29.30;50.30
21387;DHT22;10854;45.922;6.716;2023-06-05T10:17:53;29.20;49.60
21387;DHT22;10854;45.922;6.716;2023-06-05T10:20:22;29.20;49.80
21387;DHT22;10854;45.922;6.716;2023-06-05T10:22:51;29.40;50.40
21387;DHT22;10854;45.922;6.716;2023-06-05T10:25:20;29.60;49.40
21387;DHT22;10854;45.922;6.716;2023-06-05T10:31:12;29.30;48.80
21387;DHT22;10854;45.922;6.716;2023-06-05T10:34:17;29.20;49.60
21387;DHT22;10854;45.922;6.716;2023-06-05T10:39:34;29.60;49.80
21387;DHT22;10854;45.922;6.716;2023-06-05T10:42:03;29.70;49.60
21387;DHT22;10854;45.922;6.716;2023-06-05T10:44:44;29.90;49.40
21387;DHT22;10854;45.922;6.716;2023-06-05T10:50:19;30.60;48.00
21387;DHT22;10854;45.922;6.716;2023-06-05T10:52:49;31.20;47.60
21387;DHT22;10854;45.922;6.716;2023-06-05T10:55:18;31.70;48.10
21387;DHT22;10854;45.922;6.716;2023-06-05T10:58:05;32.00;47.30
21387;DHT22;10854;45.922;6.716;2023-06-05T11:00:37;32.40;46.10
21387;DHT22;10854;45.922;6.716;2023-06-05T11:03:06;32.60;45.70
21387;DHT22;10854;45.922;6.716;2023-06-05T11:05:34;32.50;45.20
21387;DHT22;10854;45.922;6.716;2023-06-05T11:08:14;32.20;45.10
21387;DHT22;10854;45.922;6.716;2023-06-05T11:11:04;31.80;45.50
21387;DHT22;10854;45.922;6.716;2023-06-05T11:13:55;31.20;46.60
21387;DHT22;10854;45.922;6.716;2023-06-05T11:16:31;30.90;47.40
21387;DHT22;10854;45.922;6.716;2023-06-05T11:22:08;31.20;46.50
21387;DHT22;10854;45.922;6.716;2023-06-05T11:24:38;31.20;46.20
21387;DHT22;10854;45.922;6.716;2023-06-05T11:27:40;31.10;46.30
21387;DHT22;10854;45.922;6.716;2023-06-05T11:29:55;31.20;46.60
21387;DHT22;10854;45.922;6.716;2023-06-05T11:32:25;31.40;45.60
21387;DHT22;10854;45.922;6.716;2023-06-05T11:34:55;31.50;45.30
21387;DHT22;10854;45.922;6.716;2023-06-05T11:37:26;31.50;45.00
21387;DHT22;10854;45.922;6.716;2023-06-05T11:39:55;31.50;45.00
21387;DHT22;10854;45.922;6.716;2023-06-05T11:42:23;31.40;45.60
21387;DHT22;10854;45.922;6.716;2023-06-05T11:44:51;31.40;44.80
21387;DHT22;10854;45.922;6.716;2023-06-05T11:47:23;31.20;45.10
21387;DHT22;10854;45.922;6.716;2023-06-05T11:49:52;31.40;45.50
21387;DHT22;10854;45.922;6.716;2023-06-05T11:52:21;31.90;45.90
21387;DHT22;10854;45.922;6.716;2023-06-05T11:54:50;32.60;45.00
21387;DHT22;10854;45.922;6.716;2023-06-05T11:57:42;33.20;43.50
21387;DHT22;10854;45.922;6.716;2023-06-05T12:00:23;33.30;41.60
21387;DHT22;10854;45.922;6.716;2023-06-05T12:02:51;33.10;41.10
21387;DHT22;10854;45.922;6.716;2023-06-05T12:05:20;32.70;41.50
21387;DHT22;10854;45.922;6.716;2023-06-05T12:07:49;32.50;42.20
21387;DHT22;10854;45.922;6.716;2023-06-05T12:10:18;32.50;42.20
21387;DHT22;10854;45.922;6.716;2023-06-05T12:12:51;32.40;41.70
21387;DHT22;10854;45.922;6.716;2023-06-05T12:15:21;32.30;42.20
21387;DHT22;10854;45.922;6.716;2023-06-05T12:20:20;32.40;42.00
21387;DHT22;10854;45.922;6.716;2023-06-05T12:22:49;32.50;40.80
21387;DHT22;10854;45.922;6.716;2023-06-05T12:25:21;32.40;40.30
21387;DHT22;10854;45.922;6.716;2023-06-05T12:27:50;32.30;40.60
21387;DHT22;10854;45.922;6.716;2023-06-05T12:30:18;32.40;40.70
21387;DHT22;10854;45.922;6.716;2023-06-05T12:32:47;32.50;40.70
21387;DHT22;10854;45.922;6.716;2023-06-05T12:35:23;32.60;40.30
21387;DHT22;10854;45.922;6.716;2023-06-05T12:37:59;32.60;40.30
21387;DHT22;10854;45.922;6.716;2023-06-05T12:40:28;32.90;40.00
21387;DHT22;10854;45.922;6.716;2023-06-05T12:43:01;33.00;39.30
21387;DHT22;10854;45.922;6.716;2023-06-05T12:45:30;32.90;38.50
21387;DHT22;10854;45.922;6.716;2023-06-05T12:47:58;32.70;39.60
21387;DHT22;10854;45.922;6.716;2023-06-05T12:50:27;32.60;39.80
21387;DHT22;10854;45.922;6.716;2023-06-05T12:52:56;32.40;39.50
21387;DHT22;10854;45.922;6.716;2023-06-05T12:55:24;32.10;39.80
21387;DHT22;10854;45.922;6.716;2023-06-05T12:57:53;31.80;39.10
21387;DHT22;10854;45.922;6.716;2023-06-05T13:00:21;31.80;38.90
21387;DHT22;10854;45.922;6.716;2023-06-05T13:02:49;31.80;38.40
21387;DHT22;10854;45.922;6.716;2023-06-05T13:05:18;31.90;39.00
21387;DHT22;10854;45.922;6.716;2023-06-05T13:07:46;32.00;39.20
21387;DHT22;10854;45.922;6.716;2023-06-05T13:10:15;32.00;38.50
21387;DHT22;10854;45.922;6.716;2023-06-05T13:12:43;32.10;38.60
21387;DHT22;10854;45.922;6.716;2023-06-05T13:15:12;32.00;37.70
21387;DHT22;10854;45.922;6.716;2023-06-05T13:17:40;32.10;37.70
21387;DHT22;10854;45.922;6.716;2023-06-05T13:20:09;32.10;39.00
21387;DHT22;10854;45.922;6.716;2023-06-05T13:22:41;32.20;38.80
21387;DHT22;10854;45.922;6.716;2023-06-05T13:25:09;32.40;38.70
21387;DHT22;10854;45.922;6.716;2023-06-05T13:27:38;32.60;39.00
21387;DHT22;10854;45.922;6.716;2023-06-05T13:30:07;33.00;38.30
21387;DHT22;10854;45.922;6.716;2023-06-05T13:32:36;33.30;37.50
21387;DHT22;10854;45.922;6.716;2023-06-05T13:35:09;33.50;36.60
21387;DHT22;10854;45.922;6.716;2023-06-05T13:37:38;33.40;36.10
21387;DHT22;10854;45.922;6.716;2023-06-05T13:40:07;33.40;36.60
21387;DHT22;10854;45.922;6.716;2023-06-05T13:42:38;33.40;37.40
21387;DHT22;10854;45.922;6.716;2023-06-05T13:45:07;33.50;37.40
21387;DHT22;10854;45.922;6.716;2023-06-05T13:47:35;33.50;36.60
21387;DHT22;10854;45.922;6.716;2023-06-05T13:50:04;33.40;37.00
21387;DHT22;10854;45.922;6.716;2023-06-05T13:52:33;33.10;36.10
21387;DHT22;10854;45.922;6.716;2023-06-05T13:55:01;32.80;36.40
21387;DHT22;10854;45.922;6.716;2023-06-05T13:57:30;32.80;36.90
21387;DHT22;10854;45.922;6.716;2023-06-05T13:59:58;32.80;37.30
21387;DHT22;10854;45.922;6.716;2023-06-05T14:02:27;33.10;37.40
21387;DHT22;10854;45.922;6.716;2023-06-05T14:04:55;33.40;37.40
21387;DHT22;10854;45.922;6.716;2023-06-05T14:07:24;33.70;36.90
21387;DHT22;10854;45.922;6.716;2023-06-05T14:09:55;33.70;36.50
21387;DHT22;10854;45.922;6.716;2023-06-05T14:12:24;33.60;36.70
21387;DHT22;10854;45.922;6.716;2023-06-05T14:14:52;33.30;35.70
21387;DHT22;10854;45.922;6.716;2023-06-05T14:17:21;33.00;35.90
21387;DHT22;10854;45.922;6.716;2023-06-05T14:19:49;32.80;36.30
21387;DHT22;10854;45.922;6.716;2023-06-05T14:22:18;32.50;36.80
21387;DHT22;10854;45.922;6.716;2023-06-05T14:24:47;32.30;37.10
21387;DHT22;10854;45.922;6.716;2023-06-05T14:27:15;32.00;37.10
21387;DHT22;10854;45.922;6.716;2023-06-05T14:29:46;31.70;36.80
21387;DHT22;10854;45.922;6.716;2023-06-05T14:32:14;31.40;37.30
21387;DHT22;10854;45.922;6.716;2023-06-05T14:34:42;31.20;38.20
21387;DHT22;10854;45.922;6.716;2023-06-05T14:37:11;31.00;38.60
21387;DHT22;10854;45.922;6.716;2023-06-05T14:39:39;30.80;38.70
21387;DHT22;10854;45.922;6.716;2023-06-05T14:42:07;30.60;38.60
21387;DHT22;10854;45.922;6.716;2023-06-05T14:44:36;30.30;38.80
21387;DHT22;10854;45.922;6.716;2023-06-05T14:47:04;30.00;39.20
21387;DHT22;10854;45.922;6.716;2023-06-05T14:49:34;30.00;39.80
21387;DHT22;10854;45.922;6.716;2023-06-05T14:52:03;30.00;39.30
21387;DHT22;10854;45.922;6.716;2023-06-05T14:54:33;30.00;39.20
21387;DHT22;10854;45.922;6.716;2023-06-05T14:57:01;30.20;39.30
21387;DHT22;10854;45.922;6.716;2023-06-05T14:59:29;30.40;39.00
21387;DHT22;10854;45.922;6.716;2023-06-05T15:01:58;30.50;38.10
21387;DHT22;10854;45.922;6.716;2023-06-05T15:04:27;30.50;37.80
21387;DHT22;10854;45.922;6.716;2023-06-05T15:06:57;30.60;38.10
21387;DHT22;10854;45.922;6.716;2023-06-05T15:09:25;30.80;37.80
21387;DHT22;10854;45.922;6.716;2023-06-05T15:11:54;31.00;37.50
21387;DHT22;10854;45.922;6.716;2023-06-05T15:14:23;31.30;37.40
21387;DHT22;10854;45.922;6.716;2023-06-05T15:16:52;31.40;37.40
21387;DHT22;10854;45.922;6.716;2023-06-05T15:19:20;31.40;37.50
21387;DHT22;10854;45.922;6.716;2023-06-05T15:21:48;31.20;37.20
21387;DHT22;10854;45.922;6.716;2023-06-05T15:24:17;31.20;37.20
21387;DHT22;10854;45.922;6.716;2023-06-05T15:26:45;31.20;37.90
21387;DHT22;10854;45.922;6.716;2023-06-05T15:29:14;31.10;39.00
21387;DHT22;10854;45.922;6.716;2023-06-05T15:31:42;31.10;39.20
21387;DHT22;10854;45.922;6.716;2023-06-05T15:34:11;31.00;39.80
21387;DHT22;10854;45.922;6.716;2023-06-05T15:36:40;31.00;39.80
21387;DHT22;10854;45.922;6.716;2023-06-05T15:39:08;31.00;39.80
21387;DHT22;10854;45.922;6.716;2023-06-05T15:41:38;31.10;39.90
21387;DHT22;10854;45.922;6.716;2023-06-05T15:44:06;31.10;39.30
21387;DHT22;10854;45.922;6.716;2023-06-05T15:46:38;31.10;39.10
21387;DHT22;10854;45.922;6.716;2023-06-05T15:49:06;31.10;39.10
21387;DHT22;10854;45.922;6.716;2023-06-05T15:51:35;31.00;39.80
21387;DHT22;10854;45.922;6.716;2023-06-05T15:54:05;30.90;40.10
21387;DHT22;10854;45.922;6.716;2023-06-05T15:56:41;30.80;40.30
21387;DHT22;10854;45.922;6.716;2023-06-05T15:59:09;30.60;39.60
21387;DHT22;10854;45.922;6.716;2023-06-05T16:01:38;30.40;38.90
21387;DHT22;10854;45.922;6.716;2023-06-05T16:04:06;30.20;38.80
21387;DHT22;10854;45.922;6.716;2023-06-05T16:06:34;30.10;39.20